Time;durP1;ratioP1;P1;durP2;ratioP2;P2;SDS_P1;SDS_P2;PMS_P1;PMS_P2;Temp;Humidity;BMP_temperature;BMP_pressure;BME280_temperature;BME280_humidity;BME280_pressure;Samples;Min_cycle;Max_cycle;Signal;HPM_P1;HPM_P2
2023/09/11 00:00:04;;;;;;;16.98;10.68;;;24.90;67.50;;;;;;352353;28;1122;-57
2023/09/11 00:00:15;;;;;;;15.43;10.50;;;24.90;67.40;;;;;;352401;28;1065;-57
2023/09/11 00:00:26;;;;;;;13.85;9.77;;;24.90;67.00;;;;;;352316;28;1058;-57
2023/09/11 00:00:37;;;;;;;12.90;9.70;;;24.90;66.80;;;;;;352423;28;1169;-57
2023/09/11 00:00:48;;;;;;;13.00;9.88;;;24.90;66.80;;;;;;352381;28;1391;-58
2023/09/11 00:00:58;;;;;;;13.02;9.65;;;24.90;66.90;;;;;;352398;28;1373;-59
2023/09/11 00:01:09;;;;;;;12.63;9.43;;;24.90;66.80;;;;;;352370;28;1062;-58
2023/09/11 00:01:20;;;;;;;12.13;9.33;;;24.90;66.80;;;;;;352457;28;1030;-58
2023/09/11 00:01:31;;;;;;;11.35;9.50;;;24.80;66.70;;;;;;352407;28;1039;-58
2023/09/11 00:01:42;;;;;;;11.27;9.30;;;24.90;66.70;;;;;;352398;28;1494;-58
2023/09/11 00:01:52;;;;;;;12.13;9.50;;;24.90;66.70;;;;;;352384;28;1089;-57
2023/09/11 00:02:03;;;;;;;12.73;9.60;;;24.90;66.60;;;;;;352455;28;1089;-58
2023/09/11 00:02:14;;;;;;;13.48;10.02;;;24.90;66.60;;;;;;352433;28;1022;-56
2023/09/11 00:02:26;;;;;;;12.90;9.87;;;24.90;66.70;;;;;;352415;28;967;-57
2023/09/11 00:02:37;;;;;;;13.73;9.82;;;24.90;66.40;;;;;;352347;28;1105;-57
2023/09/11 00:02:47;;;;;;;12.90;9.57;;;24.90;66.30;;;;;;352466;28;943;-57
2023/09/11 00:02:58;;;;;;;12.70;9.60;;;24.90;66.40;;;;;;352439;28;1061;-56
2023/09/11 00:03:09;;;;;;;11.68;9.70;;;24.80;66.20;;;;;;352451;28;1090;-57
2023/09/11 00:03:20;;;;;;;12.63;9.57;;;24.90;66.10;;;;;;352360;28;1018;-57
2023/09/11 00:03:31;;;;;;;12.65;10.07;;;24.80;66.10;;;;;;352431;28;1015;-57
2023/09/11 00:03:41;;;;;;;12.95;9.75;;;24.80;66.30;;;;;;352395;28;886;-57
2023/09/11 00:03:52;;;;;;;12.05;9.18;;;24.80;66.40;;;;;;352412;28;1069;-57
2023/09/11 00:04:03;;;;;;;13.98;9.27;;;24.70;66.40;;;;;;352368;28;979;-56
2023/09/11 00:04:14;;;;;;;14.68;9.32;;;24.70;66.30;;;;;;352420;28;1141;-57
2023/09/11 00:04:25;;;;;;;14.65;9.55;;;24.70;66.50;;;;;;352489;28;1022;-57
2023/09/11 00:04:35;;;;;;;15.07;10.03;;;24.70;66.70;;;;;;352395;28;1042;-57
2023/09/11 00:04:46;;;;;;;14.07;10.07;;;24.70;66.80;;;;;;352292;28;1700;-59
2023/09/11 00:04:57;;;;;;;13.93;10.07;;;24.70;66.90;;;;;;352374;28;1193;-59
2023/09/11 00:05:07;;;;;;;14.77;10.10;;;24.70;66.90;;;;;;352464;28;891;-57
2023/09/11 00:05:18;;;;;;;14.15;10.18;;;24.70;67.00;;;;;;352331;28;1070;-58
2023/09/11 00:05:29;;;;;;;13.98;10.25;;;24.70;67.00;;;;;;352445;28;1082;-58
2023/09/11 00:05:39;;;;;;;13.25;10.10;;;24.70;67.00;;;;;;352386;28;1157;-57
2023/09/11 00:05:50;;;;;;;13.17;9.80;;;24.70;66.80;;;;;;352319;28;1034;-57
2023/09/11 00:06:04;;;;;;;12.18;9.63;;;24.70;66.80;;;;;;352441;28;1026;-57
2023/09/11 00:06:15;;;;;;;11.65;9.75;;;24.70;66.80;;;;;;352450;28;1023;-57
2023/09/11 00:06:26;;;;;;;11.80;9.82;;;24.70;66.90;;;;;;352300;28;1201;-57
2023/09/11 00:06:37;;;;;;;12.80;9.80;;;24.70;67.00;;;;;;352389;28;1038;-57
2023/09/11 00:06:48;;;;;;;13.27;9.85;;;24.70;66.70;;;;;;352415;28;1018;-57
2023/09/11 00:07:01;;;;;;;13.32;10.25;;;24.70;66.50;;;;;;352252;28;1286;-56
2023/09/11 00:07:13;;;;;;;12.25;10.23;;;24.70;66.50;;;;;;352426;28;962;-57
2023/09/11 00:07:24;;;;;;;12.70;9.88;;;24.70;66.60;;;;;;352405;28;1062;-58
2023/09/11 00:07:35;;;;;;;13.20;9.68;;;24.70;66.80;;;;;;352345;28;970;-58
2023/09/11 00:07:46;;;;;;;13.32;9.85;;;24.60;66.90;;;;;;352454;28;841;-57
2023/09/11 00:07:57;;;;;;;12.53;9.70;;;24.60;67.00;;;;;;352364;28;1037;-57
2023/09/11 00:08:08;;;;;;;14.00;9.70;;;24.70;67.10;;;;;;352354;28;1054;-58
2023/09/11 00:08:19;;;;;;;13.90;9.75;;;24.70;67.20;;;;;;352439;28;998;-57
2023/09/11 00:08:29;;;;;;;13.52;10.32;;;24.60;67.30;;;;;;352463;28;1018;-57
2023/09/11 00:08:40;;;;;;;13.15;10.30;;;24.60;67.30;;;;;;352318;28;1361;-56
2023/09/11 00:08:52;;;;;;;14.23;10.40;;;24.60;67.30;;;;;;352494;28;943;-62
2023/09/11 00:09:03;;;;;;;15.38;10.20;;;24.60;67.30;;;;;;352448;28;1081;-58
2023/09/11 00:09:14;;;;;;;14.00;10.25;;;24.60;67.30;;;;;;352226;28;1498;-58
2023/09/11 00:09:25;;;;;;;13.90;10.03;;;24.60;67.40;;;;;;352423;28;1003;-57
2023/09/11 00:09:35;;;;;;;14.07;10.25;;;24.60;67.30;;;;;;352350;28;1182;-56
2023/09/11 00:09:46;;;;;;;14.80;10.30;;;24.60;67.30;;;;;;352333;28;1091;-57
2023/09/11 00:09:57;;;;;;;14.30;10.47;;;24.60;67.30;;;;;;352421;28;979;-56
2023/09/11 00:10:08;;;;;;;13.35;10.15;;;24.60;67.40;;;;;;352473;28;844;-56
2023/09/11 00:10:19;;;;;;;13.60;10.32;;;24.60;67.50;;;;;;352407;28;947;-57
2023/09/11 00:10:32;;;;;;;14.10;10.50;;;24.60;67.40;;;;;;352368;28;933;-56
2023/09/11 00:10:43;;;;;;;13.32;10.27;;;24.60;67.30;;;;;;352439;28;1042;-57
2023/09/11 00:10:53;;;;;;;11.83;9.63;;;24.60;67.20;;;;;;352438;28;1085;-55
2023/09/11 00:11:04;;;;;;;11.45;9.73;;;24.60;67.00;;;;;;352476;28;1861;-56
2023/09/11 00:11:15;;;;;;;12.32;10.02;;;24.60;67.00;;;;;;352349;28;1070;-59
2023/09/11 00:11:26;;;;;;;11.90;10.03;;;24.60;66.90;;;;;;352323;28;1168;-56
2023/09/11 00:11:37;;;;;;;12.60;9.95;;;24.60;66.80;;;;;;352419;28;909;-55
2023/09/11 00:11:47;;;;;;;12.30;9.93;;;24.60;66.90;;;;;;352486;28;837;-56
2023/09/11 00:11:58;;;;;;;12.13;10.05;;;24.60;67.00;;;;;;352298;28;1022;-57
2023/09/11 00:12:10;;;;;;;11.32;9.98;;;24.60;67.10;;;;;;352438;28;979;-56
2023/09/11 00:12:21;;;;;;;11.35;9.90;;;24.60;67.10;;;;;;352455;28;891;-56
2023/09/11 00:12:32;;;;;;;12.30;9.57;;;24.60;67.00;;;;;;352326;28;1190;-56
2023/09/11 00:12:42;;;;;;;13.15;9.98;;;24.60;66.90;;;;;;352358;28;1039;-57
2023/09/11 00:12:53;;;;;;;13.52;10.10;;;24.60;66.80;;;;;;352454;28;1037;-56
2023/09/11 00:13:04;;;;;;;12.88;10.07;;;24.60;66.70;;;;;;352339;28;1431;-57
2023/09/11 00:13:14;;;;;;;12.30;9.35;;;24.60;66.30;;;;;;352431;28;809;-55
2023/09/11 00:13:27;;;;;;;11.30;8.37;;;24.60;65.70;;;;;;352310;28;1250;-57
2023/09/11 00:13:37;;;;;;;11.23;7.85;;;24.60;65.20;;;;;;352331;28;1126;-57
2023/09/11 00:13:48;;;;;;;10.97;8.27;;;24.60;65.10;;;;;;352333;28;1180;-57
2023/09/11 00:13:59;;;;;;;10.98;8.68;;;24.50;65.10;;;;;;352433;28;825;-56
2023/09/11 00:14:09;;;;;;;10.23;8.73;;;24.60;65.30;;;;;;352335;28;986;-58
2023/09/11 00:14:20;;;;;;;12.67;8.97;;;24.60;65.40;;;;;;352404;28;995;-56
2023/09/11 00:14:31;;;;;;;15.40;9.00;;;24.50;65.50;;;;;;352294;28;1759;-57
2023/09/11 00:14:41;;;;;;;15.90;8.70;;;24.50;65.50;;;;;;352421;28;925;-57
2023/09/11 00:14:52;;;;;;;13.98;8.57;;;24.50;65.50;;;;;;352324;28;987;-57
2023/09/11 00:15:03;;;;;;;11.43;8.00;;;24.50;65.70;;;;;;352443;28;975;-56
2023/09/11 00:15:14;;;;;;;10.98;7.82;;;24.50;65.20;;;;;;352337;28;1118;-56
2023/09/11 00:15:25;;;;;;;11.20;7.53;;;24.50;64.80;;;;;;352318;28;1292;-57
2023/09/11 00:15:36;;;;;;;11.10;7.68;;;24.50;64.80;;;;;;352406;28;1019;-57
2023/09/11 00:15:46;;;;;;;11.45;7.57;;;24.50;65.10;;;;;;352403;28;1106;-56
2023/09/11 00:15:57;;;;;;;11.20;8.15;;;24.50;65.50;;;;;;352343;28;1078;-56
2023/09/11 00:16:08;;;;;;;10.70;8.23;;;24.50;65.90;;;;;;352445;28;1111;-55
2023/09/11 00:16:19;;;;;;;10.57;8.50;;;24.50;66.10;;;;;;352441;28;1057;-56
2023/09/11 00:16:29;;;;;;;10.75;8.35;;;24.50;65.90;;;;;;352390;28;982;-56
2023/09/11 00:16:41;;;;;;;11.20;8.38;;;24.50;65.80;;;;;;352397;28;1034;-57
2023/09/11 00:16:52;;;;;;;10.57;8.18;;;24.50;65.80;;;;;;352393;28;994;-57
2023/09/11 00:17:03;;;;;;;10.52;8.32;;;24.50;65.80;;;;;;352349;28;909;-56
2023/09/11 00:17:14;;;;;;;11.07;8.85;;;24.40;65.90;;;;;;352419;28;864;-57
2023/09/11 00:17:24;;;;;;;11.60;8.83;;;24.50;66.00;;;;;;352454;28;837;-55
2023/09/11 00:17:35;;;;;;;11.73;8.65;;;24.50;65.80;;;;;;352387;28;990;-58
2023/09/11 00:17:46;;;;;;;11.88;8.18;;;24.40;65.80;;;;;;352385;28;1457;-57
2023/09/11 00:17:56;;;;;;;12.03;8.20;;;24.40;65.80;;;;;;352299;28;1961;-56
2023/09/11 00:18:07;;;;;;;11.68;8.23;;;24.40;65.40;;;;;;352321;28;1314;-56
2023/09/11 00:18:18;;;;;;;9.38;7.93;;;24.50;64.80;;;;;;352471;28;1002;-56
2023/09/11 00:18:29;;;;;;;10.00;8.07;;;24.50;64.50;;;;;;352387;28;1125;-56
2023/09/11 00:18:40;;;;;;;10.35;7.90;;;24.50;64.50;;;;;;352314;28;971;-56
2023/09/11 00:18:50;;;;;;;11.43;8.00;;;24.50;64.50;;;;;;352388;28;884;-56
2023/09/11 00:19:01;;;;;;;11.20;7.65;;;24.40;64.50;;;;;;352435;28;968;-57
2023/09/11 00:19:12;;;;;;;11.27;7.70;;;24.40;64.70;;;;;;352345;28;1086;-55
2023/09/11 00:19:23;;;;;;;10.50;7.70;;;24.40;64.60;;;;;;352419;28;1397;-57
2023/09/11 00:19:33;;;;;;;9.47;7.33;;;24.40;64.50;;;;;;352459;28;805;-58
2023/09/11 00:19:44;;;;;;;9.60;7.40;;;24.40;64.50;;;;;;352344;28;1151;-56
2023/09/11 00:19:55;;;;;;;9.52;7.50;;;24.40;64.60;;;;;;352464;28;1053;-55
2023/09/11 00:20:09;;;;;;;10.15;7.70;;;24.40;65.00;;;;;;352403;28;1014;-58
2023/09/11 00:20:20;;;;;;;10.00;7.65;;;24.40;65.00;;;;;;352417;28;1019;-56
2023/09/11 00:20:30;;;;;;;10.60;8.07;;;24.40;65.00;;;;;;352364;28;982;-56
2023/09/11 00:20:41;;;;;;;10.05;8.07;;;24.40;64.90;;;;;;352354;28;1862;-56
2023/09/11 00:20:52;;;;;;;10.50;8.35;;;24.40;64.90;;;;;;352423;28;1015;-58
2023/09/11 00:21:03;;;;;;;10.35;8.18;;;24.40;65.00;;;;;;352410;28;946;-57
2023/09/11 00:21:14;;;;;;;10.63;7.93;;;24.40;65.00;;;;;;352346;28;1590;-56
2023/09/11 00:21:24;;;;;;;10.93;7.88;;;24.40;65.10;;;;;;352483;28;856;-55
2023/09/11 00:21:35;;;;;;;10.80;7.97;;;24.40;65.10;;;;;;352436;28;1023;-56
2023/09/11 00:21:46;;;;;;;10.63;8.20;;;24.40;65.00;;;;;;352422;28;1062;-58
2023/09/11 00:21:57;;;;;;;9.68;8.32;;;24.30;64.80;;;;;;352289;28;1474;-56
2023/09/11 00:22:07;;;;;;;9.45;8.38;;;24.40;64.80;;;;;;352362;28;1087;-57
2023/09/11 00:22:18;;;;;;;10.20;8.33;;;24.40;64.80;;;;;;352364;28;988;-56
2023/09/11 00:22:29;;;;;;;11.25;8.25;;;24.40;64.70;;;;;;352439;28;854;-56
2023/09/11 00:22:39;;;;;;;11.00;8.13;;;24.40;64.80;;;;;;352305;28;1038;-57
2023/09/11 00:22:50;;;;;;;11.00;8.10;;;24.40;64.90;;;;;;352426;28;861;-56
2023/09/11 00:23:01;;;;;;;12.00;8.40;;;24.40;64.70;;;;;;352422;28;864;-55
2023/09/11 00:23:12;;;;;;;12.70;8.30;;;24.40;64.60;;;;;;352428;28;1035;-56
2023/09/11 00:23:23;;;;;;;11.80;8.38;;;24.40;64.50;;;;;;352370;28;1011;-56
2023/09/11 00:23:33;;;;;;;11.30;8.45;;;24.40;64.50;;;;;;352394;28;951;-57
2023/09/11 00:23:44;;;;;;;12.00;8.85;;;24.40;64.40;;;;;;352333;28;1107;-56
2023/09/11 00:23:55;;;;;;;11.87;8.77;;;24.40;64.50;;;;;;352466;28;1033;-58
2023/09/11 00:24:06;;;;;;;11.18;8.60;;;24.40;64.50;;;;;;352296;28;991;-56
2023/09/11 00:24:16;;;;;;;10.27;8.40;;;24.30;64.60;;;;;;352342;28;1031;-56
2023/09/11 00:24:27;;;;;;;11.25;8.57;;;24.40;64.60;;;;;;352395;28;1010;-56
2023/09/11 00:24:38;;;;;;;11.37;8.80;;;24.40;64.50;;;;;;352387;28;1027;-56
2023/09/11 00:24:49;;;;;;;11.45;8.75;;;24.30;64.40;;;;;;352363;28;983;-57
2023/09/11 00:24:59;;;;;;;11.02;8.70;;;24.40;64.40;;;;;;352398;28;1022;-57
2023/09/11 00:25:10;;;;;;;11.18;8.77;;;24.30;64.40;;;;;;352357;28;1165;-56
2023/09/11 00:25:21;;;;;;;11.23;8.68;;;24.30;64.40;;;;;;352302;28;1594;-56
2023/09/11 00:25:33;;;;;;;10.50;8.57;;;24.40;64.60;;;;;;352417;28;892;-58
2023/09/11 00:25:43;;;;;;;10.82;8.32;;;24.30;64.80;;;;;;352351;28;1130;-56
2023/09/11 00:25:54;;;;;;;11.30;8.70;;;24.30;64.90;;;;;;352324;28;1055;-56
2023/09/11 00:26:05;;;;;;;10.60;8.68;;;24.30;64.90;;;;;;352404;28;999;-58
2023/09/11 00:26:16;;;;;;;10.67;8.73;;;24.30;64.80;;;;;;352397;28;1081;-58
2023/09/11 00:26:26;;;;;;;11.47;8.60;;;24.30;64.70;;;;;;352359;28;982;-57
2023/09/11 00:26:37;;;;;;;12.20;8.73;;;24.30;64.90;;;;;;352436;28;840;-57
2023/09/11 00:26:48;;;;;;;12.80;9.00;;;24.30;65.00;;;;;;352494;28;987;-57
2023/09/11 00:26:58;;;;;;;12.55;9.25;;;24.30;64.80;;;;;;352330;28;1033;-55
2023/09/11 00:27:09;;;;;;;12.30;9.37;;;24.30;64.70;;;;;;352434;28;1042;-56
2023/09/11 00:27:20;;;;;;;14.07;9.10;;;24.30;64.60;;;;;;352408;28;1545;-57
2023/09/11 00:27:31;;;;;;;12.93;8.98;;;24.30;64.40;;;;;;352254;28;1432;-56
2023/09/11 00:27:41;;;;;;;12.85;8.80;;;24.30;64.40;;;;;;352410;28;995;-55
2023/09/11 00:27:52;;;;;;;11.53;8.70;;;24.30;64.40;;;;;;352432;28;821;-57
2023/09/11 00:28:03;;;;;;;12.18;9.10;;;24.30;64.50;;;;;;352351;28;913;-57
2023/09/11 00:28:14;;;;;;;11.93;8.90;;;24.30;64.60;;;;;;352335;28;1126;-56
2023/09/11 00:28:25;;;;;;;11.82;8.90;;;24.30;64.70;;;;;;352441;28;963;-55
2023/09/11 00:28:35;;;;;;;11.65;8.77;;;24.30;64.90;;;;;;352284;28;1090;-56
2023/09/11 00:28:46;;;;;;;10.70;8.77;;;24.30;65.00;;;;;;352434;28;929;-56
2023/09/11 00:28:57;;;;;;;10.15;8.65;;;24.30;65.10;;;;;;352378;28;1023;-56
2023/09/11 00:29:07;;;;;;;10.23;8.80;;;24.30;65.00;;;;;;352329;28;888;-58
2023/09/11 00:29:18;;;;;;;12.33;9.30;;;24.30;65.00;;;;;;352366;28;1133;-56
2023/09/11 00:29:29;;;;;;;12.82;9.30;;;24.20;64.90;;;;;;352445;28;800;-55
2023/09/11 00:29:39;;;;;;;13.93;9.60;;;24.30;64.90;;;;;;352362;28;889;-56
2023/09/11 00:29:51;;;;;;;11.73;9.10;;;24.20;64.80;;;;;;352375;28;960;-56
2023/09/11 00:30:03;;;;;;;11.02;8.68;;;24.30;64.80;;;;;;352406;28;1128;-56
2023/09/11 00:30:14;;;;;;;9.82;8.15;;;24.20;65.00;;;;;;352420;28;1915;-56
2023/09/11 00:30:25;;;;;;;10.23;8.60;;;24.30;65.20;;;;;;352350;28;919;-56
2023/09/11 00:30:38;;;;;;;11.48;8.80;;;24.20;65.30;;;;;;352352;28;1106;-56
2023/09/11 00:30:49;;;;;;;12.82;8.88;;;24.30;65.30;;;;;;352474;28;817;-59
2023/09/11 00:31:00;;;;;;;13.23;8.68;;;24.30;65.40;;;;;;352385;28;1111;-56
2023/09/11 00:31:11;;;;;;;10.30;8.38;;;24.30;65.40;;;;;;352254;28;1558;-56
2023/09/11 00:31:22;;;;;;;11.17;8.23;;;24.30;65.30;;;;;;352442;28;963;-56
2023/09/11 00:31:32;;;;;;;10.88;8.57;;;24.30;65.20;;;;;;352414;28;1054;-56
2023/09/11 00:31:43;;;;;;;11.82;9.05;;;24.30;65.20;;;;;;352339;28;1412;-57
2023/09/11 00:31:54;;;;;;;11.60;9.70;;;24.30;65.30;;;;;;352312;28;1041;-56
2023/09/11 00:32:05;;;;;;;12.03;9.33;;;24.30;65.50;;;;;;352366;28;1102;-57
2023/09/11 00:32:15;;;;;;;12.05;9.05;;;24.30;65.50;;;;;;352331;28;1193;-60
2023/09/11 00:32:26;;;;;;;12.77;8.68;;;24.30;65.50;;;;;;352441;28;1765;-57
2023/09/11 00:32:37;;;;;;;12.38;8.65;;;24.30;65.40;;;;;;352263;28;1086;-57
2023/09/11 00:32:47;;;;;;;12.20;8.70;;;24.30;65.20;;;;;;352423;28;951;-58
2023/09/11 00:32:58;;;;;;;11.80;8.52;;;24.30;65.20;;;;;;352408;28;1082;-56
2023/09/11 00:33:09;;;;;;;11.82;8.65;;;24.30;65.30;;;;;;352354;28;1118;-56
2023/09/11 00:33:20;;;;;;;13.02;9.00;;;24.30;65.30;;;;;;352205;28;1184;-56
2023/09/11 00:33:30;;;;;;;12.53;9.23;;;24.20;65.50;;;;;;352425;28;805;-56
2023/09/11 00:33:41;;;;;;;11.35;9.23;;;24.30;65.80;;;;;;352412;28;904;-57
2023/09/11 00:33:52;;;;;;;11.20;9.68;;;24.30;66.00;;;;;;352369;28;1023;-57
2023/09/11 00:34:03;;;;;;;12.43;9.85;;;24.20;66.00;;;;;;352345;28;936;-57
2023/09/11 00:34:13;;;;;;;13.00;9.80;;;24.20;65.90;;;;;;352477;28;887;-56
2023/09/11 00:34:24;;;;;;;11.87;9.07;;;24.30;65.80;;;;;;352441;28;797;-57
2023/09/11 00:34:35;;;;;;;12.63;9.20;;;24.30;65.70;;;;;;352398;28;1018;-56
2023/09/11 00:34:45;;;;;;;12.68;9.00;;;24.30;65.60;;;;;;352330;28;1158;-55
2023/09/11 00:34:56;;;;;;;11.93;8.80;;;24.30;65.50;;;;;;352386;28;856;-57
2023/09/11 00:35:07;;;;;;;11.18;8.77;;;24.30;65.20;;;;;;352441;28;999;-57
2023/09/11 00:35:18;;;;;;;11.90;9.02;;;24.30;65.20;;;;;;352309;28;1066;-56
2023/09/11 00:35:29;;;;;;;12.93;9.45;;;24.30;65.30;;;;;;352431;28;887;-56
2023/09/11 00:35:44;;;;;;;12.10;9.50;;;24.30;65.50;;;;;;352384;28;995;-57
2023/09/11 00:35:55;;;;;;;11.48;9.52;;;24.30;65.80;;;;;;352394;28;1030;-56
2023/09/11 00:36:05;;;;;;;10.93;9.07;;;24.30;65.70;;;;;;352445;28;1071;-56
2023/09/11 00:36:16;;;;;;;11.20;8.75;;;24.30;65.60;;;;;;352295;28;1270;-57
2023/09/11 00:36:27;;;;;;;11.40;8.80;;;24.30;65.40;;;;;;352444;28;816;-57
2023/09/11 00:36:38;;;;;;;11.25;8.80;;;24.30;65.30;;;;;;352404;28;840;-55
2023/09/11 00:36:48;;;;;;;11.35;8.65;;;24.30;65.30;;;;;;352320;28;2609;-57
2023/09/11 00:36:59;;;;;;;10.80;8.60;;;24.30;65.40;;;;;;352383;28;828;-56
2023/09/11 00:37:10;;;;;;;10.02;8.45;;;24.20;65.30;;;;;;352468;28;872;-57
2023/09/11 00:37:21;;;;;;;10.93;8.50;;;24.30;65.30;;;;;;352313;28;991;-55
2023/09/11 00:37:31;;;;;;;12.68;8.65;;;24.30;65.20;;;;;;352417;28;832;-55
2023/09/11 00:37:42;;;;;;;11.93;8.53;;;24.30;65.00;;;;;;352390;28;952;-56
2023/09/11 00:37:53;;;;;;;11.32;8.52;;;24.30;64.90;;;;;;352195;28;1988;-56
2023/09/11 00:38:03;;;;;;;11.73;8.55;;;24.20;64.90;;;;;;352385;28;1019;-57
2023/09/11 00:38:14;;;;;;;13.02;8.80;;;24.30;65.00;;;;;;352400;28;999;-57
2023/09/11 00:38:25;;;;;;;12.40;8.93;;;24.30;65.20;;;;;;352348;28;1031;-56
2023/09/11 00:38:35;;;;;;;12.43;9.20;;;24.20;65.40;;;;;;352413;28;1014;-56
2023/09/11 00:38:47;;;;;;;12.15;9.32;;;24.20;65.70;;;;;;352410;28;1162;-57
2023/09/11 00:38:58;;;;;;;12.18;9.07;;;24.20;65.70;;;;;;352314;28;1101;-56
2023/09/11 00:39:09;;;;;;;11.60;9.00;;;24.30;65.80;;;;;;352408;28;1069;-57
2023/09/11 00:39:20;;;;;;;11.93;8.98;;;24.20;65.80;;;;;;352381;28;1058;-56
2023/09/11 00:39:30;;;;;;;12.63;9.05;;;24.20;65.70;;;;;;352306;28;1575;-56
2023/09/11 00:39:41;;;;;;;11.48;8.90;;;24.20;65.60;;;;;;352415;28;857;-56
2023/09/11 00:39:52;;;;;;;10.75;8.85;;;24.20;65.70;;;;;;352383;28;1050;-56
2023/09/11 00:40:03;;;;;;;10.90;9.00;;;24.20;65.80;;;;;;352381;28;975;-57
2023/09/11 00:40:14;;;;;;;11.75;8.98;;;24.20;65.80;;;;;;352360;28;1057;-56
2023/09/11 00:40:25;;;;;;;12.10;9.20;;;24.20;65.80;;;;;;352365;28;987;-56
2023/09/11 00:40:36;;;;;;;11.48;9.07;;;24.20;65.70;;;;;;352471;28;932;-56
2023/09/11 00:40:46;;;;;;;11.10;9.03;;;24.20;65.70;;;;;;352395;28;1023;-55
2023/09/11 00:40:57;;;;;;;11.25;8.77;;;24.20;65.80;;;;;;352327;28;979;-55
2023/09/11 00:41:08;;;;;;;13.13;8.75;;;24.20;65.80;;;;;;352362;28;1114;-58
2023/09/11 00:41:18;;;;;;;12.60;8.93;;;24.30;66.00;;;;;;352402;28;1161;-56
2023/09/11 00:41:29;;;;;;;12.63;8.83;;;24.20;65.80;;;;;;352365;28;895;-56
2023/09/11 00:41:40;;;;;;;10.48;8.63;;;24.20;65.70;;;;;;352402;28;1019;-57
2023/09/11 00:41:51;;;;;;;10.95;8.52;;;24.20;65.50;;;;;;352336;28;1160;-56
2023/09/11 00:42:02;;;;;;;10.95;8.68;;;24.20;65.50;;;;;;352297;28;1425;-56
2023/09/11 00:42:12;;;;;;;11.50;8.85;;;24.30;65.50;;;;;;352408;28;1011;-56
2023/09/11 00:42:23;;;;;;;11.23;9.10;;;24.20;65.70;;;;;;352449;28;1014;-56
2023/09/11 00:42:34;;;;;;;11.82;9.52;;;24.30;65.80;;;;;;352277;28;1252;-57
2023/09/11 00:42:45;;;;;;;14.10;10.10;;;24.30;65.90;;;;;;352369;28;963;-56
2023/09/11 00:42:55;;;;;;;15.02;10.05;;;24.30;66.00;;;;;;352409;28;1090;-56
2023/09/11 00:43:06;;;;;;;14.23;9.97;;;24.20;66.00;;;;;;352348;28;938;-56
2023/09/11 00:43:17;;;;;;;13.85;9.85;;;24.20;66.00;;;;;;352267;28;1287;-56
2023/09/11 00:43:27;;;;;;;13.45;9.93;;;24.30;66.20;;;;;;352400;28;1275;-55
2023/09/11 00:43:38;;;;;;;13.13;10.10;;;24.30;66.20;;;;;;352370;28;998;-59
2023/09/11 00:43:49;;;;;;;12.00;9.93;;;24.30;66.10;;;;;;352431;28;832;-57
2023/09/11 00:43:59;;;;;;;11.85;9.85;;;24.30;66.10;;;;;;352387;28;876;-57
2023/09/11 00:44:10;;;;;;;12.80;9.77;;;24.20;66.10;;;;;;352308;28;987;-58
2023/09/11 00:44:21;;;;;;;14.17;9.77;;;24.30;66.10;;;;;;352369;28;1356;-57
2023/09/11 00:44:32;;;;;;;14.73;9.68;;;24.20;66.10;;;;;;352400;28;975;-58
2023/09/11 00:44:42;;;;;;;12.15;9.48;;;24.30;66.10;;;;;;352377;28;1497;-57
2023/09/11 00:44:53;;;;;;;11.73;9.63;;;24.20;66.10;;;;;;352382;28;979;-57
2023/09/11 00:45:05;;;;;;;12.02;9.68;;;24.20;66.20;;;;;;352307;28;1664;-58
2023/09/11 00:45:16;;;;;;;12.25;9.52;;;24.20;66.40;;;;;;352437;28;1003;-57
2023/09/11 00:45:26;;;;;;;12.30;9.27;;;24.20;66.40;;;;;;352379;28;1078;-57
2023/09/11 00:45:37;;;;;;;12.95;9.48;;;24.20;66.40;;;;;;352383;28;1054;-57
2023/09/11 00:45:50;;;;;;;14.25;9.75;;;24.20;66.40;;;;;;352391;28;833;-57
2023/09/11 00:46:01;;;;;;;14.93;9.80;;;24.20;66.50;;;;;;352296;28;976;-57
2023/09/11 00:46:12;;;;;;;14.07;9.50;;;24.20;66.50;;;;;;352419;28;991;-57
2023/09/11 00:46:23;;;;;;;14.03;9.80;;;24.20;66.70;;;;;;352337;28;1181;-59
2023/09/11 00:46:34;;;;;;;14.50;9.43;;;24.20;66.80;;;;;;352442;28;945;-57
2023/09/11 00:46:45;;;;;;;13.32;9.30;;;24.20;66.70;;;;;;352350;28;1102;-56
2023/09/11 00:46:56;;;;;;;13.18;9.13;;;24.20;66.80;;;;;;352346;28;1034;-57
2023/09/11 00:47:07;;;;;;;16.10;9.65;;;24.30;67.00;;;;;;352352;28;1032;-59
2023/09/11 00:47:18;;;;;;;16.20;9.88;;;24.30;66.90;;;;;;352391;28;1051;-57
2023/09/11 00:47:29;;;;;;;16.60;10.05;;;24.20;66.80;;;;;;352339;28;1392;-58
2023/09/11 00:47:41;;;;;;;14.70;10.17;;;24.20;66.80;;;;;;352334;28;1249;-57
2023/09/11 00:47:52;;;;;;;15.82;10.40;;;24.20;66.80;;;;;;352298;28;2454;-55
2023/09/11 00:48:04;;;;;;;14.13;10.15;;;24.20;66.90;;;;;;352346;28;1227;-55
2023/09/11 00:48:15;;;;;;;14.48;10.30;;;24.20;67.00;;;;;;352409;28;959;-56
2023/09/11 00:48:26;;;;;;;14.73;10.15;;;24.20;67.00;;;;;;352341;28;1027;-56
2023/09/11 00:48:36;;;;;;;15.10;9.93;;;24.20;67.00;;;;;;352388;28;1115;-56
2023/09/11 00:48:51;;;;;;;13.80;9.77;;;24.20;67.00;;;;;;352311;28;1107;-56
2023/09/11 00:49:02;;;;;;;12.90;9.70;;;24.20;67.00;;;;;;352379;28;1042;-56
2023/09/11 00:49:13;;;;;;;12.75;9.75;;;24.20;67.00;;;;;;352372;28;848;-56
2023/09/11 00:49:24;;;;;;;13.75;9.77;;;24.20;67.00;;;;;;352337;28;1967;-56
2023/09/11 00:49:35;;;;;;;13.20;9.55;;;24.20;67.00;;;;;;352232;28;2076;-56
2023/09/11 00:49:45;;;;;;;13.07;9.65;;;24.20;67.20;;;;;;352381;28;987;-55
2023/09/11 00:49:58;;;;;;;14.43;10.07;;;24.20;67.30;;;;;;352393;28;1006;-56
2023/09/11 00:50:11;;;;;;;13.75;9.68;;;24.20;67.20;;;;;;352375;28;1110;-56
2023/09/11 00:50:23;;;;;;;11.40;9.18;;;24.20;67.10;;;;;;352288;28;1043;-56
2023/09/11 00:50:33;;;;;;;11.10;9.13;;;24.20;67.10;;;;;;352478;28;841;-56
2023/09/11 00:50:44;;;;;;;11.15;8.98;;;24.20;67.10;;;;;;352331;28;1298;-56
2023/09/11 00:50:56;;;;;;;11.70;9.35;;;24.10;67.10;;;;;;352484;28;942;-57
2023/09/11 00:51:07;;;;;;;11.68;9.43;;;24.10;67.00;;;;;;352243;28;1221;-55
2023/09/11 00:51:17;;;;;;;13.00;9.75;;;24.10;67.00;;;;;;352374;28;1474;-57
2023/09/11 00:51:28;;;;;;;11.98;9.43;;;24.10;67.00;;;;;;352356;28;927;-55
2023/09/11 00:51:39;;;;;;;11.40;9.33;;;24.10;67.00;;;;;;352449;28;828;-56
2023/09/11 00:51:50;;;;;;;10.48;9.27;;;24.10;67.00;;;;;;352240;28;1130;-56
2023/09/11 00:52:02;;;;;;;12.07;9.73;;;24.10;67.00;;;;;;352372;28;1109;-55
2023/09/11 00:52:13;;;;;;;12.25;9.55;;;24.20;67.00;;;;;;352301;28;1609;-56
2023/09/11 00:52:24;;;;;;;12.07;9.43;;;24.10;66.80;;;;;;352433;28;828;-56
2023/09/11 00:52:35;;;;;;;11.38;9.18;;;24.10;66.80;;;;;;352306;28;1043;-57
2023/09/11 00:52:47;;;;;;;11.65;9.38;;;24.10;66.70;;;;;;352445;28;1782;-56
2023/09/11 00:52:58;;;;;;;12.80;9.40;;;24.10;66.60;;;;;;352398;28;1197;-56
2023/09/11 00:53:09;;;;;;;12.90;9.27;;;24.10;66.60;;;;;;352403;28;995;-56
2023/09/11 00:53:20;;;;;;;12.18;9.13;;;24.10;66.70;;;;;;352303;28;1045;-56
2023/09/11 00:53:31;;;;;;;11.73;9.35;;;24.10;66.70;;;;;;352380;28;1101;-56
2023/09/11 00:53:42;;;;;;;12.50;9.30;;;24.10;66.90;;;;;;352313;28;1122;-56
2023/09/11 00:53:53;;;;;;;12.77;9.47;;;24.10;67.20;;;;;;352413;28;959;-57
2023/09/11 00:54:04;;;;;;;12.07;9.25;;;24.10;67.20;;;;;;352328;28;1114;-56
2023/09/11 00:54:15;;;;;;;11.52;8.98;;;24.10;66.80;;;;;;352418;28;877;-57
2023/09/11 00:54:26;;;;;;;12.00;8.88;;;24.10;66.70;;;;;;352402;28;979;-56
2023/09/11 00:54:36;;;;;;;12.13;8.93;;;24.10;66.70;;;;;;352412;28;824;-56
2023/09/11 00:54:48;;;;;;;12.35;9.38;;;24.10;66.80;;;;;;352270;28;1018;-57
2023/09/11 00:54:59;;;;;;;12.45;9.70;;;24.10;66.70;;;;;;352365;28;999;-56
2023/09/11 00:55:10;;;;;;;11.85;9.52;;;24.10;66.50;;;;;;352347;28;1154;-56
2023/09/11 00:55:22;;;;;;;12.75;9.73;;;24.20;66.50;;;;;;352432;28;1034;-57
2023/09/11 00:55:33;;;;;;;12.57;9.68;;;24.10;66.60;;;;;;352286;28;1134;-55
2023/09/11 00:55:45;;;;;;;13.48;9.77;;;24.10;66.70;;;;;;352388;28;907;-55
2023/09/11 00:55:56;;;;;;;12.40;9.18;;;24.10;66.80;;;;;;352350;28;1343;-56
2023/09/11 00:56:07;;;;;;;12.55;8.77;;;24.10;66.80;;;;;;352419;28;1241;-56
2023/09/11 00:56:18;;;;;;;11.73;8.87;;;24.10;66.90;;;;;;352344;28;1008;-58
2023/09/11 00:56:30;;;;;;;11.60;8.82;;;24.10;67.00;;;;;;352381;28;995;-56
2023/09/11 00:56:41;;;;;;;12.38;8.95;;;24.10;67.20;;;;;;352394;28;1054;-56
2023/09/11 00:56:52;;;;;;;12.27;9.15;;;24.10;67.30;;;;;;352364;28;999;-56
2023/09/11 00:57:03;;;;;;;12.13;9.15;;;24.10;67.20;;;;;;352299;28;1163;-56
2023/09/11 00:57:17;;;;;;;11.20;9.02;;;24.10;67.30;;;;;;352425;28;1006;-55
2023/09/11 00:57:29;;;;;;;11.70;9.43;;;24.10;67.20;;;;;;352377;28;1134;-57
2023/09/11 00:57:41;;;;;;;12.50;9.40;;;24.10;67.10;;;;;;352356;28;1031;-56
2023/09/11 00:57:51;;;;;;;11.07;9.02;;;24.10;67.20;;;;;;352233;28;1913;-56
2023/09/11 00:58:02;;;;;;;11.38;8.80;;;24.10;67.20;;;;;;352428;28;904;-56